createdAt,value
2016-10-02T00:00:35.609Z,0
2016-10-02T00:01:35.587Z,0
2016-10-02T00:02:35.884Z,0
2016-10-02T00:03:35.610Z,0
2016-10-02T00:04:35.862Z,0
2016-10-02T00:05:35.865Z,0
2016-10-02T00:06:35.858Z,0
2016-10-02T00:07:35.516Z,0
2016-10-02T00:08:35.519Z,0
2016-10-02T00:09:35.480Z,0
2016-10-02T00:10:35.468Z,0
2016-10-02T00:11:35.449Z,0
2016-10-02T00:12:35.459Z,0
2016-10-02T00:13:35.422Z,0
2016-10-02T00:14:35.422Z,0
2016-10-02T00:15:35.719Z,0
2016-10-02T00:16:35.393Z,0
2016-10-02T00:17:35.375Z,0
2016-10-02T00:18:35.366Z,0
2016-10-02T00:19:35.353Z,0
2016-10-02T00:20:35.648Z,0
2016-10-02T00:21:35.324Z,0
2016-10-02T00:22:35.623Z,0
2016-10-02T00:23:35.929Z,0
2016-10-02T00:24:35.288Z,0
2016-10-02T00:25:35.589Z,0
2016-10-02T00:26:35.592Z,0
2016-10-02T00:27:35.573Z,0
2016-10-02T00:28:35.241Z,0
2016-10-02T00:29:35.225Z,0
2016-10-02T00:30:35.226Z,0
2016-10-02T00:31:35.198Z,0
2016-10-02T00:32:35.182Z,0
2016-10-02T00:33:35.476Z,0
2016-10-02T00:34:35.154Z,0
2016-10-02T00:35:35.145Z,0
2016-10-02T00:36:35.127Z,0
2016-10-02T00:37:35.126Z,0
2016-10-02T00:38:35.097Z,0
2016-10-02T00:39:35.404Z,0
2016-10-02T00:40:35.077Z,0
2016-10-02T00:41:35.060Z,0
2016-10-02T00:42:35.046Z,0
2016-10-02T00:43:35.038Z,0
2016-10-02T00:44:35.037Z,0
2016-10-02T00:45:35.637Z,0
2016-10-02T00:46:35.318Z,0
2016-10-02T00:47:35.306Z,0
2016-10-02T00:48:35.285Z,0
2016-10-02T00:49:34.962Z,0
2016-10-02T00:50:34.943Z,0
2016-10-02T00:51:34.923Z,0
2016-10-02T00:52:34.919Z,0
2016-10-02T00:53:35.117Z,0
2016-10-02T00:54:35.213Z,0
2016-10-02T00:55:34.961Z,0
2016-10-02T00:56:34.864Z,0
2016-10-02T00:57:34.851Z,0
2016-10-02T00:58:34.838Z,0
2016-10-02T00:59:34.823Z,0
2016-10-02T01:00:34.809Z,0
2016-10-02T01:01:34.799Z,0
2016-10-02T01:02:35.094Z,0
2016-10-02T01:03:34.773Z,0
2016-10-02T01:04:34.855Z,0
2016-10-02T01:05:35.059Z,0
2016-10-02T01:06:35.054Z,0
2016-10-02T01:07:35.036Z,0
2016-10-02T01:08:35.017Z,0
2016-10-02T01:09:34.697Z,0
2016-10-02T01:10:34.995Z,0
2016-10-02T01:11:34.663Z,0
2016-10-02T01:12:34.973Z,0
2016-10-02T01:13:34.642Z,0
2016-10-02T01:14:34.631Z,0
2016-10-02T01:15:34.611Z,0
2016-10-02T01:16:34.917Z,0
2016-10-02T01:17:34.587Z,0
2016-10-02T01:18:34.580Z,0
2016-10-02T01:19:34.876Z,0
2016-10-02T01:20:34.555Z,0
2016-10-02T01:21:34.862Z,0
2016-10-02T01:22:34.832Z,0
2016-10-02T01:23:35.144Z,0
2016-10-02T01:24:34.523Z,0
2016-10-02T01:25:34.803Z,0
2016-10-02T01:26:34.789Z,0
2016-10-02T01:27:34.453Z,0
2016-10-02T01:28:34.444Z,0
2016-10-02T01:29:34.431Z,0
2016-10-02T01:30:34.419Z,0
2016-10-02T01:31:34.404Z,0
2016-10-02T01:32:34.706Z,0
2016-10-02T01:33:34.688Z,0
2016-10-02T01:34:34.366Z,0
2016-10-02T01:35:34.349Z,0
2016-10-02T01:36:34.655Z,0
2016-10-02T01:37:34.326Z,0
2016-10-02T01:38:34.312Z,0
2016-10-02T01:39:34.300Z,0
2016-10-02T01:40:34.604Z,0
2016-10-02T01:41:34.280Z,0
2016-10-02T01:42:34.259Z,0
2016-10-02T01:43:34.249Z,0
2016-10-02T01:44:34.229Z,0
2016-10-02T01:45:34.222Z,0
2016-10-02T01:46:34.530Z,0
2016-10-02T01:47:34.194Z,0
2016-10-02T01:48:34.177Z,0
2016-10-02T01:49:34.170Z,0
2016-10-02T01:50:34.466Z,0
2016-10-02T01:51:34.153Z,0
2016-10-02T01:52:34.143Z,0
2016-10-02T01:53:34.123Z,0
2016-10-02T01:54:34.421Z,0
2016-10-02T01:55:34.084Z,0
2016-10-02T01:56:34.394Z,0
2016-10-02T01:57:34.056Z,0
2016-10-02T01:58:34.049Z,0
2016-10-02T01:59:34.348Z,0
2016-10-02T02:00:34.022Z,0
2016-10-02T02:01:34.325Z,0
2016-10-02T02:02:33.995Z,0
2016-10-02T02:03:33.985Z,0
2016-10-02T02:04:33.962Z,0
2016-10-02T02:05:33.953Z,0
2016-10-02T02:06:34.279Z,0
2016-10-02T02:07:33.937Z,0
2016-10-02T02:08:33.920Z,0
2016-10-02T02:09:33.901Z,0
2016-10-02T02:10:34.213Z,0
2016-10-02T02:11:33.877Z,0
2016-10-02T02:12:33.876Z,0
2016-10-02T02:13:34.157Z,0
2016-10-02T02:14:34.164Z,0
2016-10-02T02:15:34.150Z,0
2016-10-02T02:16:33.809Z,0
2016-10-02T02:17:33.796Z,0
2016-10-02T02:18:33.790Z,0
2016-10-02T02:19:34.083Z,0
2016-10-02T02:20:33.752Z,0
2016-10-02T02:21:34.065Z,0
2016-10-02T02:22:33.726Z,0
2016-10-02T02:23:33.720Z,0
2016-10-02T02:24:33.704Z,0
2016-10-02T02:25:33.692Z,0
2016-10-02T02:26:33.684Z,0
2016-10-02T02:27:33.669Z,0
2016-10-02T02:28:33.649Z,0
2016-10-02T02:29:34.266Z,0
2016-10-02T02:30:33.645Z,0
2016-10-02T02:31:33.605Z,0
2016-10-02T02:32:33.622Z,0
2016-10-02T02:33:33.578Z,0
2016-10-02T02:34:33.568Z,0
2016-10-02T02:35:33.567Z,0
2016-10-02T02:36:33.565Z,0
2016-10-02T02:37:33.846Z,0
2016-10-02T02:38:33.515Z,0
2016-10-02T02:39:33.507Z,0
2016-10-02T02:40:33.486Z,0
2016-10-02T02:41:33.475Z,0
2016-10-02T02:42:33.460Z,0
2016-10-02T02:43:33.461Z,0
2016-10-02T02:44:33.751Z,0
2016-10-02T02:45:33.754Z,0
2016-10-02T02:46:33.725Z,0
2016-10-02T02:47:33.393Z,0
2016-10-02T02:48:33.723Z,0
2016-10-02T02:49:33.368Z,0
2016-10-02T02:50:33.873Z,0
2016-10-02T02:51:33.346Z,0
2016-10-02T02:52:33.331Z,0
2016-10-02T02:53:33.536Z,0
2016-10-02T02:54:33.621Z,0
2016-10-02T02:55:33.291Z,0
2016-10-02T02:56:33.271Z,0
2016-10-02T02:57:33.262Z,0
2016-10-02T02:58:33.910Z,0
2016-10-02T02:59:33.236Z,0
2016-10-02T03:00:33.848Z,0
2016-10-02T03:01:33.217Z,0
2016-10-02T03:02:33.840Z,0
2016-10-02T03:03:33.180Z,0
2016-10-02T03:04:33.171Z,0
2016-10-02T03:05:33.470Z,0
2016-10-02T03:06:33.148Z,0
2016-10-02T03:07:33.126Z,0
2016-10-02T03:08:33.118Z,0
2016-10-02T03:09:33.422Z,0
2016-10-02T03:10:33.716Z,0
2016-10-02T03:11:33.074Z,0
2016-10-02T03:12:33.066Z,0
2016-10-02T03:13:33.046Z,0
2016-10-02T03:14:33.034Z,0
2016-10-02T03:15:33.023Z,0
2016-10-02T03:16:33.321Z,0
2016-10-02T03:17:32.992Z,0
2016-10-02T03:18:32.980Z,0
2016-10-02T03:19:33.288Z,0
2016-10-02T03:20:32.980Z,0
2016-10-02T03:21:33.255Z,0
2016-10-02T03:22:32.930Z,0
2016-10-02T03:23:33.231Z,0
2016-10-02T03:24:32.897Z,0
2016-10-02T03:25:33.200Z,0
2016-10-02T03:26:33.198Z,0
2016-10-02T03:27:33.198Z,0
2016-10-02T03:28:32.855Z,0
2016-10-02T03:29:33.161Z,0
2016-10-02T03:30:33.136Z,0
2016-10-02T03:31:32.806Z,0
2016-10-02T03:32:32.808Z,0
2016-10-02T03:33:32.842Z,0
2016-10-02T03:34:33.413Z,0
2016-10-02T03:35:33.127Z,0
2016-10-02T03:36:33.054Z,0
2016-10-02T03:37:33.072Z,0
2016-10-02T03:38:32.713Z,0
2016-10-02T03:39:33.031Z,0
2016-10-02T03:40:33.356Z,0
2016-10-02T03:41:32.997Z,0
2016-10-02T03:42:32.677Z,0
2016-10-02T03:43:32.656Z,0
2016-10-02T03:44:32.653Z,0
2016-10-02T03:45:32.638Z,0
2016-10-02T03:46:32.609Z,0
2016-10-02T03:47:32.934Z,0
2016-10-02T03:48:33.219Z,0
2016-10-02T03:49:32.566Z,0
2016-10-02T03:50:32.867Z,0
2016-10-02T03:51:32.557Z,0
2016-10-02T03:52:32.524Z,0
2016-10-02T03:53:32.519Z,0
2016-10-02T03:54:32.509Z,0
2016-10-02T03:55:32.492Z,0
2016-10-02T03:56:33.114Z,0
2016-10-02T03:57:32.467Z,0
2016-10-02T03:58:32.451Z,0
2016-10-02T03:59:32.443Z,0
2016-10-02T04:00:32.420Z,0
2016-10-02T04:01:32.400Z,0
2016-10-02T04:02:32.714Z,0
2016-10-02T04:03:32.376Z,0
2016-10-02T04:04:32.679Z,0
2016-10-02T04:05:32.434Z,0
2016-10-02T04:06:32.977Z,0
2016-10-02T04:07:32.322Z,0
2016-10-02T04:08:32.312Z,0
2016-10-02T04:09:32.619Z,0
2016-10-02T04:10:32.607Z,0
2016-10-02T04:11:32.282Z,0
2016-10-02T04:12:32.304Z,0
2016-10-02T04:13:32.237Z,0
2016-10-02T04:14:32.551Z,0
2016-10-02T04:15:32.220Z,0
2016-10-02T04:16:32.828Z,0
2016-10-02T04:17:32.199Z,0
2016-10-02T04:18:32.170Z,0
2016-10-02T04:19:32.157Z,0
2016-10-02T04:20:32.139Z,0
2016-10-02T04:21:32.438Z,0
2016-10-02T04:22:32.126Z,0
2016-10-02T04:23:32.097Z,0
2016-10-02T04:24:32.414Z,0
2016-10-02T04:25:32.076Z,0
2016-10-02T04:26:32.067Z,0
2016-10-02T04:27:32.047Z,0
2016-10-02T04:28:32.035Z,0
2016-10-02T04:29:32.010Z,0
2016-10-02T04:30:32.006Z,0
2016-10-02T04:31:31.995Z,0
2016-10-02T04:32:32.043Z,0
2016-10-02T04:33:31.955Z,0
2016-10-02T04:34:31.940Z,0
2016-10-02T04:35:31.929Z,0
2016-10-02T04:36:32.257Z,0
2016-10-02T04:37:32.591Z,0
2016-10-02T04:38:31.889Z,0
2016-10-02T04:39:31.916Z,0
2016-10-02T04:40:31.872Z,0
2016-10-02T04:41:31.869Z,0
2016-10-02T04:42:31.908Z,0
2016-10-02T04:43:32.138Z,0
2016-10-02T04:44:31.806Z,0
2016-10-02T04:45:31.824Z,0
2016-10-02T04:46:32.107Z,0
2016-10-02T04:47:32.135Z,0
2016-10-02T04:48:32.414Z,0
2016-10-02T04:49:32.089Z,0
2016-10-02T04:50:31.738Z,0
2016-10-02T04:51:32.082Z,0
2016-10-02T04:52:31.757Z,0
2016-10-02T04:53:32.208Z,0
2016-10-02T04:54:31.669Z,0
2016-10-02T04:55:32.002Z,0
2016-10-02T04:56:31.708Z,0
2016-10-02T04:57:31.629Z,0
2016-10-02T04:58:31.928Z,0
2016-10-02T04:59:32.251Z,0
2016-10-02T05:00:31.935Z,0
2016-10-02T05:01:31.593Z,0
2016-10-02T05:02:31.554Z,0
2016-10-02T05:03:31.554Z,0
2016-10-02T05:04:31.529Z,0
2016-10-02T05:05:31.830Z,4
2016-10-02T05:06:31.503Z,4
2016-10-02T05:07:32.113Z,4
2016-10-02T05:08:31.473Z,4
2016-10-02T05:09:31.454Z,4
2016-10-02T05:10:31.446Z,4
2016-10-02T05:11:31.427Z,8
2016-10-02T05:12:31.417Z,8
2016-10-02T05:13:32.032Z,12
2016-10-02T05:14:31.397Z,12
2016-10-02T05:15:31.688Z,12
2016-10-02T05:16:31.368Z,16
2016-10-02T05:17:31.340Z,16
2016-10-02T05:18:31.335Z,20
2016-10-02T05:19:31.632Z,24
2016-10-02T05:20:31.946Z,32
2016-10-02T05:21:31.293Z,36
2016-10-02T05:22:31.594Z,44
2016-10-02T05:23:31.891Z,48
2016-10-02T05:24:31.270Z,60
2016-10-02T05:25:31.232Z,64
2016-10-02T05:26:31.230Z,76
2016-10-02T05:27:31.516Z,84
2016-10-02T05:28:31.203Z,92
2016-10-02T05:29:31.177Z,104
2016-10-02T05:30:31.535Z,116
2016-10-02T05:31:31.150Z,128
2016-10-02T05:32:31.139Z,140
2016-10-02T05:33:31.118Z,156
2016-10-02T05:34:31.433Z,172
2016-10-02T05:35:31.409Z,184
2016-10-02T05:36:31.397Z,200
2016-10-02T05:37:31.071Z,216
2016-10-02T05:38:31.053Z,236
2016-10-02T05:39:31.040Z,252
2016-10-02T05:40:31.029Z,268
2016-10-02T05:41:31.013Z,288
2016-10-02T05:42:30.997Z,308
2016-10-02T05:43:31.304Z,328
2016-10-02T05:44:31.286Z,348
2016-10-02T05:45:30.960Z,372
2016-10-02T05:46:30.955Z,388
2016-10-02T05:47:31.252Z,412
2016-10-02T05:48:30.911Z,432
2016-10-02T05:49:30.904Z,452
2016-10-02T05:50:30.884Z,472
2016-10-02T05:51:30.877Z,492
2016-10-02T05:52:30.854Z,520
2016-10-02T05:53:30.842Z,540
2016-10-02T05:54:30.839Z,564
2016-10-02T05:55:31.451Z,588
2016-10-02T05:56:30.800Z,612
2016-10-02T05:57:30.791Z,636
2016-10-02T05:58:30.779Z,660
2016-10-02T05:59:30.764Z,680
2016-10-02T06:00:31.061Z,704
2016-10-02T06:01:30.736Z,724
2016-10-02T06:02:30.928Z,744
2016-10-02T06:03:30.715Z,764
2016-10-02T06:04:30.694Z,780
2016-10-02T06:05:30.682Z,800
2016-10-02T06:06:30.667Z,820
2016-10-02T06:07:30.651Z,836
2016-10-02T06:08:30.643Z,856
2016-10-02T06:09:30.939Z,876
2016-10-02T06:10:30.612Z,896
2016-10-02T06:11:30.599Z,912
2016-10-02T06:12:30.584Z,928
2016-10-02T06:13:30.882Z,944
2016-10-02T06:14:30.561Z,960
2016-10-02T06:15:30.860Z,976
2016-10-02T06:16:30.848Z,992
2016-10-02T06:17:30.509Z,1004
2016-10-02T06:18:30.819Z,1024
2016-10-02T06:19:30.798Z,1040
2016-10-02T06:20:31.107Z,1056
2016-10-02T06:21:30.454Z,1072
2016-10-02T06:22:30.763Z,1084
2016-10-02T06:23:30.428Z,1096
2016-10-02T06:24:30.414Z,1112
2016-10-02T06:25:30.720Z,1124
2016-10-02T06:26:30.401Z,1140
2016-10-02T06:27:30.383Z,1148
2016-10-02T06:28:30.362Z,1164
2016-10-02T06:29:30.350Z,1176
2016-10-02T06:30:30.653Z,1188
2016-10-02T06:31:30.952Z,1200
2016-10-02T06:32:30.305Z,1216
2016-10-02T06:33:30.604Z,1228
2016-10-02T06:34:30.590Z,1240
2016-10-02T06:35:30.267Z,1248
2016-10-02T06:36:30.255Z,1260
2016-10-02T06:37:30.241Z,1272
2016-10-02T06:38:30.228Z,1284
2016-10-02T06:39:30.265Z,1292
2016-10-02T06:40:30.201Z,1308
2016-10-02T06:41:30.503Z,1316
2016-10-02T06:42:30.492Z,1328
2016-10-02T06:43:30.161Z,1340
2016-10-02T06:44:30.906Z,1356
2016-10-02T06:45:30.459Z,1368
2016-10-02T06:46:30.452Z,1376
2016-10-02T06:47:30.430Z,1388
2016-10-02T06:48:30.100Z,1404
2016-10-02T06:49:30.279Z,1416
2016-10-02T06:50:30.390Z,1432
2016-10-02T06:51:30.052Z,1440
2016-10-02T06:52:30.365Z,1452
2016-10-02T06:53:30.030Z,1464
2016-10-02T06:54:30.026Z,1476
2016-10-02T06:55:30.331Z,1484
2016-10-02T06:56:29.995Z,1492
2016-10-02T06:57:29.970Z,1500
2016-10-02T06:58:29.962Z,1508
2016-10-02T06:59:29.941Z,1520
2016-10-02T07:00:29.933Z,1528
2016-10-02T07:01:30.289Z,1536
2016-10-02T07:02:29.909Z,1540
2016-10-02T07:03:29.902Z,1548
2016-10-02T07:04:29.884Z,1556
2016-10-02T07:05:29.873Z,1556
2016-10-02T07:06:29.865Z,1560
2016-10-02T07:07:30.162Z,1564
2016-10-02T07:08:30.144Z,1576
2016-10-02T07:09:30.154Z,1584
2016-10-02T07:10:29.801Z,1592
2016-10-02T07:11:29.793Z,1612
2016-10-02T07:12:29.778Z,1620
2016-10-02T07:13:29.764Z,1624
2016-10-02T07:14:30.060Z,1632
2016-10-02T07:15:29.760Z,1636
2016-10-02T07:16:29.724Z,1644
2016-10-02T07:17:30.364Z,1652
2016-10-02T07:18:29.702Z,1656
2016-10-02T07:19:30.008Z,1656
2016-10-02T07:20:29.987Z,1664
2016-10-02T07:21:29.974Z,1676
2016-10-02T07:22:29.636Z,1684
2016-10-02T07:23:29.629Z,1688
2016-10-02T07:24:29.616Z,1708
2016-10-02T07:25:29.921Z,1700
2016-10-02T07:26:29.593Z,1716
2016-10-02T07:27:29.578Z,1720
2016-10-02T07:28:29.559Z,1740
2016-10-02T07:29:29.555Z,1744
2016-10-02T07:30:29.537Z,1756
2016-10-02T07:31:30.156Z,1756
2016-10-02T07:32:29.508Z,1768
2016-10-02T07:33:29.501Z,1788
2016-10-02T07:34:29.485Z,1780
2016-10-02T07:35:29.474Z,1800
2016-10-02T07:36:29.465Z,1816
2016-10-02T07:37:29.463Z,1828
2016-10-02T07:38:29.432Z,1840
2016-10-02T07:39:29.754Z,1852
2016-10-02T07:40:30.043Z,1872
2016-10-02T07:41:29.741Z,1884
2016-10-02T07:42:29.702Z,1908
2016-10-02T07:43:29.695Z,1932
2016-10-02T07:44:29.354Z,1960
2016-10-02T07:45:29.351Z,1980
2016-10-02T07:46:29.649Z,2028
2016-10-02T07:47:29.324Z,2072
2016-10-02T07:48:29.304Z,2124
2016-10-02T07:49:29.302Z,2224
2016-10-02T07:50:29.590Z,2352
2016-10-02T07:51:29.271Z,2292
2016-10-02T07:52:29.251Z,2400
2016-10-02T07:53:29.251Z,2544
2016-10-02T07:54:29.543Z,2796
2016-10-02T07:55:29.533Z,3140
2016-10-02T07:56:29.205Z,3592
2016-10-02T07:57:29.508Z,3972
2016-10-02T07:58:30.131Z,4168
2016-10-02T07:59:29.482Z,3964
2016-10-02T08:00:29.163Z,3616
2016-10-02T08:01:29.142Z,3472
2016-10-02T08:02:29.446Z,4004
2016-10-02T08:03:29.119Z,6396
2016-10-02T08:04:29.109Z,3200
2016-10-02T08:05:29.138Z,7820
2016-10-02T08:06:29.089Z,3936
2016-10-02T08:07:29.063Z,3644
2016-10-02T08:08:29.059Z,4876
2016-10-02T08:09:29.375Z,6060
2016-10-02T08:10:29.036Z,6168
2016-10-02T08:11:29.017Z,6320
2016-10-02T08:12:29.007Z,6468
2016-10-02T08:13:29.001Z,5396
2016-10-02T08:14:28.985Z,4840
2016-10-02T08:15:28.973Z,5388
2016-10-02T08:16:29.590Z,7144
2016-10-02T08:17:28.959Z,6260
2016-10-02T08:18:28.937Z,6708
2016-10-02T08:19:28.927Z,5956
2016-10-02T08:20:28.916Z,6968
2016-10-02T08:21:29.210Z,7444
2016-10-02T08:22:28.899Z,7172
2016-10-02T08:23:28.873Z,6520
2016-10-02T08:24:28.872Z,5952
2016-10-02T08:25:28.925Z,6100
2016-10-02T08:26:28.845Z,6972
2016-10-02T08:27:29.140Z,6100
2016-10-02T08:28:29.167Z,5932
2016-10-02T08:29:28.807Z,6860
2016-10-02T08:30:28.850Z,6564
2016-10-02T08:31:29.104Z,6688
2016-10-02T08:32:28.789Z,7212
2016-10-02T08:33:28.763Z,7572
2016-10-02T08:34:29.070Z,7736
2016-10-02T08:35:28.786Z,6460
2016-10-02T08:36:28.736Z,5284
2016-10-02T08:37:29.028Z,5216
2016-10-02T08:38:28.718Z,3920
2016-10-02T08:39:29.045Z,3396
2016-10-02T08:40:28.738Z,3656
2016-10-02T08:41:28.994Z,3856
2016-10-02T08:42:28.673Z,4088
2016-10-02T08:43:28.985Z,4180
2016-10-02T08:44:29.274Z,3780
2016-10-02T08:45:28.631Z,3192
2016-10-02T08:46:28.619Z,3568
2016-10-02T08:47:28.608Z,5096
2016-10-02T08:48:28.594Z,4992
2016-10-02T08:49:28.579Z,3908
2016-10-02T08:50:28.572Z,3256
2016-10-02T08:51:28.570Z,2692
2016-10-02T08:52:28.888Z,2700
2016-10-02T08:53:28.578Z,3092
2016-10-02T08:54:28.775Z,3440
2016-10-02T08:55:28.511Z,4520
2016-10-02T08:56:28.504Z,4928
2016-10-02T08:57:28.488Z,4404
2016-10-02T08:58:28.795Z,4928
2016-10-02T08:59:28.789Z,5516
2016-10-02T09:00:28.452Z,6240
2016-10-02T09:01:28.441Z,6088
2016-10-02T09:02:28.435Z,4904
2016-10-02T09:03:28.424Z,4628
2016-10-02T09:04:28.404Z,4864
2016-10-02T09:05:28.391Z,4124
2016-10-02T09:06:28.385Z,3440
2016-10-02T09:07:28.371Z,3056
2016-10-02T09:08:28.671Z,3176
2016-10-02T09:09:28.663Z,3056
2016-10-02T09:10:28.968Z,3780
2016-10-02T09:11:28.323Z,3688
2016-10-02T09:12:28.317Z,3216
2016-10-02T09:13:28.611Z,2696
2016-10-02T09:14:28.281Z,2920
2016-10-02T09:15:28.272Z,3300
2016-10-02T09:16:28.291Z,3940
2016-10-02T09:17:28.262Z,4624
2016-10-02T09:18:28.251Z,3920
2016-10-02T09:19:28.232Z,4252
2016-10-02T09:20:28.213Z,4964
2016-10-02T09:21:28.254Z,7816
2016-10-02T09:22:28.506Z,9632
2016-10-02T09:23:28.179Z,9888
2016-10-02T09:24:28.170Z,9192
2016-10-02T09:25:28.782Z,8256
2016-10-02T09:26:28.505Z,6340
2016-10-02T09:27:28.142Z,6376
2016-10-02T09:28:28.115Z,4532
2016-10-02T09:29:28.105Z,3404
2016-10-02T09:30:28.434Z,4168
2016-10-02T09:31:28.137Z,4340
2016-10-02T09:32:28.085Z,3320
2016-10-02T09:33:28.083Z,3192
2016-10-02T09:34:28.044Z,3504
2016-10-02T09:35:28.036Z,5660
2016-10-02T09:36:28.078Z,4052
2016-10-02T09:37:28.015Z,2988
2016-10-02T09:38:27.998Z,3068
2016-10-02T09:39:28.315Z,3024
2016-10-02T09:40:27.969Z,3368
2016-10-02T09:41:28.586Z,2736
2016-10-02T09:42:28.264Z,4836
2016-10-02T09:43:27.940Z,3784
2016-10-02T09:44:28.234Z,2984
2016-10-02T09:45:27.918Z,4200
2016-10-02T09:46:27.900Z,4716
2016-10-02T09:47:27.894Z,4124
2016-10-02T09:48:27.874Z,4964
2016-10-02T09:49:28.200Z,5228
2016-10-02T09:50:27.852Z,4916
2016-10-02T09:51:27.902Z,7436
2016-10-02T09:52:27.842Z,4516
2016-10-02T09:53:28.449Z,3588
2016-10-02T09:54:27.811Z,4632
2016-10-02T09:55:28.159Z,5368
2016-10-02T09:56:28.147Z,5120
2016-10-02T09:57:28.766Z,3988
2016-10-02T09:58:28.083Z,3576
2016-10-02T09:59:27.745Z,2748
2016-10-02T10:00:27.738Z,2916
2016-10-02T10:01:28.426Z,3388
2016-10-02T10:02:27.735Z,4080
2016-10-02T10:03:27.700Z,4052
2016-10-02T10:04:27.687Z,4496
2016-10-02T10:05:27.680Z,4668
2016-10-02T10:06:27.663Z,4184
2016-10-02T10:07:28.189Z,4604
2016-10-02T10:08:27.641Z,4972
2016-10-02T10:09:27.625Z,6216
2016-10-02T10:10:27.622Z,6224
2016-10-02T10:11:27.662Z,5988
2016-10-02T10:12:27.903Z,5308
2016-10-02T10:13:27.573Z,6740
2016-10-02T10:14:27.877Z,7708
2016-10-02T10:15:27.543Z,6700
2016-10-02T10:16:27.601Z,5252
2016-10-02T10:17:27.533Z,5088
2016-10-02T10:18:27.557Z,4676
2016-10-02T10:19:27.503Z,3648
2016-10-02T10:20:27.806Z,4112
2016-10-02T10:21:27.478Z,5700
2016-10-02T10:22:27.785Z,5688
2016-10-02T10:23:27.455Z,5864
2016-10-02T10:24:27.755Z,5488
2016-10-02T10:25:27.431Z,4532
2016-10-02T10:26:27.424Z,5168
2016-10-02T10:27:27.730Z,5380
2016-10-02T10:28:27.394Z,5632
2016-10-02T10:29:27.381Z,5396
2016-10-02T10:30:27.412Z,5448
2016-10-02T10:31:27.354Z,6580
2016-10-02T10:32:27.364Z,7300
2016-10-02T10:33:27.330Z,7840
2016-10-02T10:34:27.637Z,5212
2016-10-02T10:35:27.318Z,5120
2016-10-02T10:36:27.311Z,5764
2016-10-02T10:37:27.289Z,5348
2016-10-02T10:38:27.276Z,4512
2016-10-02T10:39:27.897Z,4692
2016-10-02T10:40:27.250Z,4304
2016-10-02T10:41:27.244Z,5172
2016-10-02T10:42:27.552Z,6400
2016-10-02T10:43:27.290Z,6108
2016-10-02T10:44:27.513Z,5232
2016-10-02T10:45:27.198Z,4808
2016-10-02T10:46:27.187Z,4928
2016-10-02T10:47:27.167Z,5172
2016-10-02T10:48:27.157Z,4540
2016-10-02T10:49:27.463Z,4052
2016-10-02T10:50:27.134Z,3780
2016-10-02T10:51:27.757Z,4144
2016-10-02T10:52:27.111Z,4288
2016-10-02T10:53:27.416Z,4116
2016-10-02T10:54:27.317Z,3720
2016-10-02T10:55:27.078Z,3396
2016-10-02T10:56:27.693Z,3652
2016-10-02T10:57:27.102Z,3268
2016-10-02T10:58:27.041Z,2852
2016-10-02T10:59:27.026Z,2584
2016-10-02T11:00:27.018Z,2652
2016-10-02T11:01:27.007Z,2484
2016-10-02T11:02:27.039Z,2412
2016-10-02T11:03:27.294Z,2636
2016-10-02T11:04:26.966Z,2408
2016-10-02T11:05:26.965Z,2124
2016-10-02T11:06:26.943Z,1924
2016-10-02T11:07:26.988Z,1784
2016-10-02T11:08:27.243Z,1872
2016-10-02T11:09:26.902Z,2108
2016-10-02T11:10:26.907Z,2596
2016-10-02T11:11:26.882Z,3540
2016-10-02T11:12:26.931Z,3584
2016-10-02T11:13:26.879Z,3276
2016-10-02T11:14:26.850Z,2856
2016-10-02T11:15:26.837Z,2400
2016-10-02T11:16:27.173Z,1896
2016-10-02T11:17:26.873Z,1960
2016-10-02T11:18:27.119Z,2156
2016-10-02T11:19:26.785Z,2580
2016-10-02T11:20:27.091Z,2552
2016-10-02T11:21:26.762Z,2688
2016-10-02T11:22:26.768Z,2432
2016-10-02T11:23:26.780Z,2400
2016-10-02T11:24:27.050Z,2144
2016-10-02T11:25:26.943Z,1968
2016-10-02T11:26:26.708Z,2188
2016-10-02T11:27:26.764Z,2412
2016-10-02T11:28:26.684Z,2332
2016-10-02T11:29:26.993Z,2188
2016-10-02T11:30:26.869Z,2536
2016-10-02T11:31:26.651Z,4128
2016-10-02T11:32:26.997Z,4168
2016-10-02T11:33:26.627Z,4260
2016-10-02T11:34:27.246Z,3812
2016-10-02T11:35:26.601Z,3524
2016-10-02T11:36:26.586Z,3236
2016-10-02T11:37:26.952Z,3856
2016-10-02T11:38:26.567Z,3696
2016-10-02T11:39:26.869Z,4508
2016-10-02T11:40:26.539Z,4872
2016-10-02T11:41:26.536Z,4312
2016-10-02T11:42:27.146Z,3504
2016-10-02T11:43:26.836Z,4108
2016-10-02T11:44:26.491Z,4416
2016-10-02T11:45:26.481Z,3988
2016-10-02T11:46:26.785Z,4240
2016-10-02T11:47:26.510Z,4836
2016-10-02T11:48:26.445Z,5324
2016-10-02T11:49:26.434Z,5516
2016-10-02T11:50:26.425Z,5716
2016-10-02T11:51:26.412Z,6404
2016-10-02T11:52:26.770Z,8176
2016-10-02T11:53:26.713Z,10432
2016-10-02T11:54:26.383Z,10460
2016-10-02T11:55:26.365Z,11140
2016-10-02T11:56:26.352Z,11648
2016-10-02T11:57:26.341Z,13036
2016-10-02T11:58:26.653Z,14548
2016-10-02T11:59:26.635Z,17792
2016-10-02T12:00:26.662Z,16832
2016-10-02T12:01:26.297Z,17632
2016-10-02T12:02:26.298Z,21184
2016-10-02T12:03:26.276Z,76448
2016-10-02T12:04:26.262Z,40064
2016-10-02T12:05:26.250Z,17344
2016-10-02T12:06:26.244Z,15248
2016-10-02T12:07:26.242Z,9888
2016-10-02T12:08:26.235Z,6408
2016-10-02T12:09:26.212Z,8804
2016-10-02T12:10:26.825Z,11232
2016-10-02T12:11:26.515Z,10592
2016-10-02T12:12:26.183Z,8508
2016-10-02T12:13:26.472Z,8356
2016-10-02T12:14:26.168Z,9596
2016-10-02T12:15:26.157Z,8880
2016-10-02T12:16:26.145Z,10760
2016-10-02T12:17:26.131Z,16184
2016-10-02T12:18:26.447Z,8936
2016-10-02T12:19:26.434Z,8108
2016-10-02T12:20:26.108Z,13872
2016-10-02T12:21:26.105Z,9576
2016-10-02T12:22:26.408Z,8260
2016-10-02T12:23:26.140Z,8260
2016-10-02T12:24:26.381Z,9196
2016-10-02T12:25:26.373Z,10908
2016-10-02T12:26:26.062Z,11644
2016-10-02T12:27:26.385Z,13484
2016-10-02T12:28:26.654Z,11412
2016-10-02T12:29:26.353Z,11212
2016-10-02T12:30:26.030Z,10720
2016-10-02T12:31:26.332Z,10080
2016-10-02T12:32:26.322Z,8344
2016-10-02T12:33:26.295Z,6792
2016-10-02T12:34:25.967Z,7048
2016-10-02T12:35:26.013Z,6132
2016-10-02T12:36:25.947Z,6064
2016-10-02T12:37:25.940Z,7088
2016-10-02T12:38:25.924Z,9496
2016-10-02T12:39:26.235Z,13132
2016-10-02T12:40:25.904Z,18720
2016-10-02T12:41:25.900Z,47424
2016-10-02T12:42:25.885Z,18528
2016-10-02T12:43:25.885Z,14144
2016-10-02T12:44:25.917Z,11404
2016-10-02T12:45:25.877Z,9216
2016-10-02T12:46:25.840Z,7892
2016-10-02T12:47:25.841Z,7000
2016-10-02T12:48:25.829Z,5824
2016-10-02T12:49:26.187Z,5348
2016-10-02T12:50:26.128Z,5456
2016-10-02T12:51:25.799Z,4500
2016-10-02T12:52:25.783Z,3148
2016-10-02T12:53:25.783Z,2588
2016-10-02T12:54:26.019Z,2320
2016-10-02T12:55:26.074Z,2644
2016-10-02T12:56:25.750Z,2896
2016-10-02T12:57:25.740Z,4228
2016-10-02T12:58:25.731Z,12136
2016-10-02T12:59:25.768Z,13672
2016-10-02T13:00:25.720Z,16204
2016-10-02T13:01:25.706Z,12064
2016-10-02T13:02:25.679Z,9392
2016-10-02T13:03:25.678Z,7072
2016-10-02T13:04:25.712Z,6028
2016-10-02T13:05:25.655Z,4448
2016-10-02T13:06:25.654Z,3532
2016-10-02T13:07:25.634Z,4000
2016-10-02T13:08:25.929Z,6904
2016-10-02T13:09:25.993Z,8188
2016-10-02T13:10:25.618Z,8524
2016-10-02T13:11:25.914Z,8652
2016-10-02T13:12:25.908Z,8528
2016-10-02T13:13:25.594Z,7224
2016-10-02T13:14:25.930Z,6368
2016-10-02T13:15:25.871Z,5636
2016-10-02T13:16:25.535Z,4968
2016-10-02T13:17:25.533Z,4744
2016-10-02T13:18:25.839Z,4360
2016-10-02T13:19:26.132Z,3732
2016-10-02T13:20:25.503Z,2792
2016-10-02T13:21:25.490Z,2292
2016-10-02T13:22:25.480Z,2040
2016-10-02T13:23:25.477Z,1732
2016-10-02T13:24:25.458Z,1416
2016-10-02T13:25:25.455Z,1288
2016-10-02T13:26:25.441Z,1268
2016-10-02T13:27:25.768Z,1828
2016-10-02T13:28:25.419Z,3160
2016-10-02T13:29:25.454Z,4596
2016-10-02T13:30:25.707Z,6000
2016-10-02T13:31:25.385Z,6756
2016-10-02T13:32:25.688Z,7800
2016-10-02T13:33:25.365Z,9584
2016-10-02T13:34:25.675Z,12108
2016-10-02T13:35:25.347Z,13520
2016-10-02T13:36:25.644Z,15300
2016-10-02T13:37:25.651Z,15236
2016-10-02T13:38:25.511Z,15740
2016-10-02T13:39:25.304Z,19296
2016-10-02T13:40:25.287Z,54560
2016-10-02T13:41:25.622Z,54976
2016-10-02T13:42:25.283Z,51424
2016-10-02T13:43:25.499Z,48032
2016-10-02T13:44:25.573Z,38272
2016-10-02T13:45:25.237Z,47168
2016-10-02T13:46:25.235Z,50656
2016-10-02T13:47:25.543Z,52640
2016-10-02T13:48:25.222Z,20896
2016-10-02T13:49:25.212Z,43232
2016-10-02T13:50:25.201Z,33408